Time;durP1;ratioP1;P1;durP2;ratioP2;P2;SDS_P1;SDS_P2;PMS_P1;PMS_P2;Temp;Humidity;BMP_temperature;BMP_pressure;BME280_temperature;BME280_humidity;BME280_pressure;Samples;Min_cycle;Max_cycle;Signal;HPM_P1;HPM_P2
2022/07/20 00:01:19;;;;;;;9.88;4.50;;;;;;;26.29;45.56;100882.28;5010584;28;20049;-70
2022/07/20 00:03:46;;;;;;;11.65;5.10;;;;;;;26.27;45.70;100882.78;5004570;28;20062;-71
2022/07/20 00:06:14;;;;;;;11.35;4.63;;;;;;;26.26;45.52;100891.81;4999083;28;20050;-71
2022/07/20 00:11:25;;;;;;;9.70;4.85;;;;;;;26.14;45.44;100893.75;5010020;28;20444;-72
2022/07/20 00:13:58;;;;;;;10.57;4.93;;;;;;;26.10;45.89;100896.03;5004485;28;20120;-75
2022/07/20 00:16:27;;;;;;;9.27;5.00;;;;;;;26.03;45.31;100893.63;5000927;28;20058;-69
2022/07/20 00:18:53;;;;;;;10.40;4.43;;;;;;;25.95;45.34;100883.22;4999120;28;20060;-71
2022/07/20 00:21:20;;;;;;;12.77;4.50;;;;;;;25.91;46.06;100885.50;5009989;28;20099;-72
2022/07/20 00:23:47;;;;;;;11.70;4.65;;;;;;;25.88;46.05;100889.31;5002728;28;20790;-71
2022/07/20 00:26:14;;;;;;;11.15;4.80;;;;;;;25.84;45.98;100883.06;5004210;28;20127;-72
2022/07/20 00:28:41;;;;;;;11.18;5.20;;;;;;;25.79;46.09;100892.31;5006030;28;20726;-70
2022/07/20 00:31:08;;;;;;;11.02;4.60;;;;;;;25.72;45.79;100887.06;5010463;28;20060;-71
2022/07/20 00:33:34;;;;;;;8.52;4.82;;;;;;;25.64;46.22;100880.28;4999674;28;20061;-73
2022/07/20 00:36:02;;;;;;;11.43;4.72;;;;;;;25.59;46.21;100880.97;5015425;28;20047;-70
2022/07/20 00:38:30;;;;;;;11.48;4.88;;;;;;;25.56;46.77;100879.13;5008859;28;20049;-71
2022/07/20 00:40:57;;;;;;;9.77;4.60;;;;;;;25.53;46.49;100874.47;5014104;28;20574;-71
2022/07/20 00:43:23;;;;;;;11.52;4.95;;;;;;;25.46;46.80;100877.72;5007666;28;20053;-74
2022/07/20 00:45:50;;;;;;;11.40;5.05;;;;;;;25.40;46.81;100876.88;4997125;28;20046;-71
2022/07/20 00:48:16;;;;;;;10.00;5.13;;;;;;;25.35;46.75;100880.41;5003060;28;20854;-71
2022/07/20 00:50:43;;;;;;;11.45;5.25;;;;;;;25.33;46.78;100882.94;5005697;28;20049;-73
2022/07/20 00:53:10;;;;;;;12.02;4.95;;;;;;;25.25;47.01;100876.13;5015551;28;20061;-71
2022/07/20 00:55:37;;;;;;;11.48;5.10;;;;;;;25.24;46.88;100868.91;5006293;28;20049;-72
2022/07/20 00:58:03;;;;;;;11.23;4.80;;;;;;;25.18;47.14;100872.44;4999582;28;20055;-74
2022/07/20 01:00:30;;;;;;;11.18;5.15;;;;;;;25.13;47.44;100868.78;4998389;28;20064;-72
2022/07/20 01:02:56;;;;;;;12.32;4.97;;;;;;;25.07;48.22;100863.78;4996125;28;20053;-71
2022/07/20 01:05:24;;;;;;;10.98;4.95;;;;;;;25.07;48.23;100871.50;5005202;28;20052;-73
2022/07/20 01:07:51;;;;;;;12.10;4.95;;;;;;;25.00;48.09;100861.38;4997875;28;20529;-71
2022/07/20 01:10:19;;;;;;;11.48;5.05;;;;;;;24.99;48.92;100867.53;5006703;28;20055;-72
2022/07/20 01:12:48;;;;;;;10.95;5.15;;;;;;;24.94;48.70;100863.34;5013600;28;20057;-74
2022/07/20 01:15:16;;;;;;;10.27;4.80;;;;;;;24.90;48.29;100861.97;5001635;28;20058;-72
2022/07/20 01:17:43;;;;;;;8.85;4.60;;;;;;;24.84;48.23;100866.81;4997739;28;20054;-71
2022/07/20 01:20:16;;;;;;;12.30;5.32;;;;;;;24.77;49.39;100865.16;5010233;28;20065;-73
2022/07/20 01:22:47;;;;;;;13.10;5.78;;;;;;;24.71;48.55;100855.78;4997708;28;20156;-72
2022/07/20 01:25:13;;;;;;;12.60;5.28;;;;;;;24.67;49.15;100852.38;4995153;28;20058;-71
2022/07/20 01:27:40;;;;;;;14.00;6.13;;;;;;;24.60;49.52;100840.69;5006990;28;20053;-73
2022/07/20 01:30:07;;;;;;;13.10;5.25;;;;;;;24.59;49.45;100841.94;5003334;28;20228;-72
2022/07/20 01:32:34;;;;;;;7.65;4.53;;;;;;;24.53;49.84;100839.00;4995208;28;20804;-74
2022/07/20 01:35:00;;;;;;;15.70;5.50;;;;;;;24.49;49.79;100838.44;5001516;28;20521;-75
2022/07/20 01:37:28;;;;;;;14.45;5.65;;;;;;;24.47;50.53;100838.13;4998922;28;20057;-72
2022/07/20 01:39:54;;;;;;;10.80;4.93;;;;;;;24.41;50.83;100840.13;4999017;28;20054;-73
2022/07/20 01:42:21;;;;;;;12.93;5.03;;;;;;;24.34;51.03;100846.19;5006366;28;20785;-71
2022/07/20 01:44:48;;;;;;;11.25;5.75;;;;;;;24.32;51.29;100856.41;5004467;28;20410;-72
2022/07/20 01:47:15;;;;;;;11.38;5.05;;;;;;;24.28;50.40;100844.50;5006873;28;20069;-74
2022/07/20 01:49:41;;;;;;;12.68;5.93;;;;;;;24.27;50.24;100854.25;4999267;28;20072;-74
2022/07/20 01:52:08;;;;;;;15.30;5.35;;;;;;;24.22;49.96;100844.41;5011789;28;20057;-70
2022/07/20 01:54:34;;;;;;;10.73;5.07;;;;;;;24.17;51.09;100847.16;4999634;28;20788;-72
2022/07/20 01:57:01;;;;;;;9.88;5.38;;;;;;;24.13;51.36;100843.75;5001982;28;20826;-73
2022/07/20 01:59:28;;;;;;;10.32;4.97;;;;;;;24.11;50.50;100846.25;5003389;28;20094;-72
2022/07/20 02:01:54;;;;;;;10.85;5.55;;;;;;;24.08;50.79;100848.03;5013306;28;20049;-70
2022/07/20 02:04:21;;;;;;;10.93;5.50;;;;;;;24.09;50.51;100845.97;5021228;28;20053;-71
2022/07/20 02:06:48;;;;;;;10.55;4.97;;;;;;;23.98;51.12;100840.91;5011466;28;20095;-71
2022/07/20 02:09:14;;;;;;;12.20;5.05;;;;;;;23.95;51.28;100849.56;5009462;28;20044;-71
2022/07/20 02:11:41;;;;;;;15.25;6.18;;;;;;;23.90;51.65;100848.19;5008961;28;20049;-72
2022/07/20 02:14:07;;;;;;;13.32;5.78;;;;;;;23.84;52.09;100850.13;5023324;28;20128;-70
2022/07/20 02:16:34;;;;;;;11.57;5.32;;;;;;;23.81;51.74;100848.25;5014622;28;20133;-70
2022/07/20 02:19:01;;;;;;;13.82;5.43;;;;;;;23.81;51.43;100845.44;5021748;28;20099;-70
2022/07/20 02:21:29;;;;;;;13.35;5.18;;;;;;;23.75;51.82;100840.94;5014013;28;20137;-72
2022/07/20 02:23:56;;;;;;;13.00;5.32;;;;;;;23.66;52.61;100841.03;5015954;28;20057;-73
2022/07/20 02:26:24;;;;;;;11.02;5.25;;;;;;;23.60;53.38;100843.75;5013431;28;20461;-70
2022/07/20 02:28:50;;;;;;;13.68;5.10;;;;;;;23.58;52.84;100840.63;5013846;28;20056;-72
2022/07/20 02:31:19;;;;;;;10.18;5.05;;;;;;;23.55;53.56;100838.75;5014273;28;20514;-70
2022/07/20 02:33:46;;;;;;;12.55;6.40;;;;;;;23.53;54.17;100843.31;5011298;28;20507;-72
2022/07/20 02:36:13;;;;;;;12.77;5.53;;;;;;;23.49;53.50;100834.25;5021241;28;20087;-70
2022/07/20 02:38:39;;;;;;;12.73;5.40;;;;;;;23.43;54.66;100847.50;5017766;28;20049;-70
2022/07/20 02:41:07;;;;;;;9.13;4.93;;;;;;;23.36;55.69;100837.34;5017356;28;20064;-72
2022/07/20 02:43:33;;;;;;;11.73;6.05;;;;;;;23.32;54.76;100836.72;5018529;28;20566;-70
2022/07/20 02:46:00;;;;;;;20.45;6.35;;;;;;;23.30;54.65;100839.28;5023629;28;20841;-72
2022/07/20 02:48:27;;;;;;;11.48;5.53;;;;;;;23.25;56.01;100839.91;5011450;28;20226;-71
2022/07/20 02:50:53;;;;;;;13.00;5.80;;;;;;;23.22;54.96;100838.06;5013319;28;20050;-69
2022/07/20 02:53:20;;;;;;;11.77;5.68;;;;;;;23.18;56.32;100843.06;5018874;28;20059;-69
2022/07/20 02:55:47;;;;;;;13.20;5.78;;;;;;;23.12;56.80;100833.72;5008856;28;20074;-74
2022/07/20 02:58:13;;;;;;;13.93;5.82;;;;;;;23.19;56.46;100841.03;5016308;28;20054;-70
2022/07/20 03:00:41;;;;;;;12.25;6.30;;;;;;;23.18;56.62;100834.59;5015816;28;20133;-68
2022/07/20 03:03:09;;;;;;;13.02;5.63;;;;;;;23.15;56.85;100829.94;5020176;28;20073;-71
2022/07/20 03:05:36;;;;;;;10.85;5.60;;;;;;;23.13;57.31;100837.31;5016523;28;20070;-70
2022/07/20 03:08:07;;;;;;;15.45;6.10;;;;;;;23.15;57.56;100846.84;5021715;28;20156;-73
2022/07/20 03:10:34;;;;;;;14.98;6.32;;;;;;;23.12;56.85;100838.59;5023860;28;20517;-71
2022/07/20 03:13:01;;;;;;;16.33;5.80;;;;;;;23.07;57.12;100842.84;5011493;28;20411;-72
2022/07/20 03:15:27;;;;;;;12.70;5.55;;;;;;;23.08;57.32;100840.81;5026926;28;20128;-70
2022/07/20 03:17:54;;;;;;;16.27;5.95;;;;;;;22.98;56.96;100840.06;5019444;28;20082;-71
2022/07/20 03:20:27;;;;;;;12.95;6.05;;;;;;;22.93;59.17;100840.75;5019914;28;20064;-72
2022/07/20 03:22:55;;;;;;;13.95;6.13;;;;;;;22.95;57.46;100849.53;5024415;28;20077;-69
2022/07/20 03:25:23;;;;;;;14.00;5.82;;;;;;;22.93;58.93;100837.91;5017286;28;20079;-70
2022/07/20 03:27:54;;;;;;;14.70;5.68;;;;;;;22.95;59.25;100841.06;5022037;28;20049;-71
2022/07/20 03:30:22;;;;;;;12.02;5.68;;;;;;;22.91;57.63;100831.97;5026571;28;20053;-71
2022/07/20 03:32:48;;;;;;;17.52;5.93;;;;;;;22.84;58.39;100832.31;5018695;28;20129;-70
2022/07/20 03:35:15;;;;;;;12.40;5.75;;;;;;;22.81;57.86;100830.44;5020890;28;20549;-71
2022/07/20 03:37:42;;;;;;;13.05;6.10;;;;;;;22.75;57.78;100833.13;5016286;28;20060;-71
2022/07/20 03:40:11;;;;;;;16.48;6.28;;;;;;;22.63;57.87;100836.19;5027202;28;20049;-68
2022/07/20 03:42:37;;;;;;;15.98;6.68;;;;;;;22.60;57.85;100832.28;5015318;28;20061;-69
2022/07/20 03:45:04;;;;;;;12.85;5.68;;;;;;;22.50;58.77;100844.06;5022560;28;20053;-71
2022/07/20 03:47:31;;;;;;;12.73;5.55;;;;;;;22.54;58.76;100833.41;5023350;28;20111;-71
2022/07/20 03:49:57;;;;;;;15.25;5.97;;;;;;;22.57;58.86;100836.06;5021690;28;20145;-70
2022/07/20 03:52:24;;;;;;;13.13;5.70;;;;;;;22.59;58.49;100830.72;5014907;28;20045;-71
2022/07/20 03:54:51;;;;;;;15.35;6.00;;;;;;;22.62;58.28;100840.28;5018752;28;20049;-72
2022/07/20 03:57:18;;;;;;;12.93;5.25;;;;;;;22.66;58.98;100846.53;5011239;28;20054;-69
2022/07/20 03:59:44;;;;;;;13.13;6.40;;;;;;;22.68;58.51;100844.78;5017361;28;20069;-70
2022/07/20 04:02:11;;;;;;;12.13;5.85;;;;;;;22.63;59.50;100842.63;5011431;28;20061;-69
2022/07/20 04:04:44;;;;;;;16.70;6.05;;;;;;;22.65;59.90;100850.59;5018874;28;20038;-70
2022/07/20 04:07:11;;;;;;;13.98;6.97;;;;;;;22.53;62.36;100872.13;5010953;28;20482;-69
2022/07/20 04:09:43;;;;;;;14.25;6.07;;;;;;;22.38;61.14;100902.19;5018279;28;20069;-69
2022/07/20 04:12:13;;;;;;;15.80;5.80;;;;;;;22.52;58.39;100886.69;5009999;28;20136;-68
2022/07/20 04:14:41;;;;;;;13.95;5.95;;;;;;;22.64;57.23;100888.50;5027756;28;20142;-70
2022/07/20 04:17:08;;;;;;;13.50;6.30;;;;;;;22.78;56.87;100890.66;5022986;28;20045;-70
2022/07/20 04:19:35;;;;;;;16.80;6.25;;;;;;;22.86;56.68;100885.44;5015466;28;20073;-69
2022/07/20 04:22:02;;;;;;;13.30;5.90;;;;;;;22.88;56.79;100885.75;5018426;28;20083;-70
2022/07/20 04:24:29;;;;;;;15.15;6.50;;;;;;;22.92;56.53;100903.28;5018868;28;20054;-70
2022/07/20 04:26:56;;;;;;;12.38;6.18;;;;;;;22.91;57.66;100901.75;5028363;28;20045;-70
2022/07/20 04:29:22;;;;;;;13.93;6.68;;;;;;;22.89;58.04;100905.03;5021230;28;20071;-70
2022/07/20 04:31:50;;;;;;;13.75;6.50;;;;;;;22.97;57.91;100902.63;5020980;28;20053;-71
2022/07/20 04:34:17;;;;;;;14.15;5.88;;;;;;;22.98;58.05;100902.16;5016048;28;20057;-73
2022/07/20 04:36:44;;;;;;;13.80;6.03;;;;;;;23.00;57.99;100910.13;5025302;28;20064;-71
2022/07/20 04:39:11;;;;;;;11.30;5.72;;;;;;;23.02;58.25;100910.44;5017827;28;20077;-71
2022/07/20 04:41:37;;;;;;;15.07;6.45;;;;;;;23.01;59.70;100911.72;5015104;28;20061;-72
2022/07/20 04:44:04;;;;;;;9.98;5.60;;;;;;;23.05;58.50;100929.25;5029140;28;20128;-70
2022/07/20 04:46:31;;;;;;;14.43;6.18;;;;;;;22.95;59.50;100937.00;5017606;28;20132;-72
2022/07/20 04:48:58;;;;;;;14.77;6.50;;;;;;;23.01;58.95;100934.28;5018463;28;20064;-71
2022/07/20 04:51:24;;;;;;;11.00;5.68;;;;;;;23.08;58.83;100937.53;5023831;28;20050;-70
2022/07/20 04:53:51;;;;;;;14.57;6.13;;;;;;;23.14;58.65;100944.09;5017189;28;20087;-69
2022/07/20 04:56:18;;;;;;;14.82;5.70;;;;;;;23.17;58.91;100937.50;5021124;28;20445;-71
2022/07/20 04:58:52;;;;;;;14.90;6.38;;;;;;;23.15;59.04;100951.28;5014753;28;20073;-71
2022/07/20 05:01:20;;;;;;;26.67;6.47;;;;;;;23.16;59.06;100944.41;5019661;28;20049;-71
2022/07/20 05:03:47;;;;;;;11.20;5.57;;;;;;;23.26;59.55;100942.34;5027154;28;20569;-67
2022/07/20 05:06:14;;;;;;;16.25;6.38;;;;;;;23.35;58.43;100947.94;5017742;28;20128;-72
2022/07/20 05:08:41;;;;;;;13.80;6.30;;;;;;;23.43;58.49;100944.28;5013808;28;20134;-72
2022/07/20 05:11:08;;;;;;;14.93;5.80;;;;;;;23.53;58.23;100945.78;5024742;28;20053;-74
2022/07/20 05:13:37;;;;;;;14.80;6.15;;;;;;;23.62;58.15;100942.88;5010452;28;20068;-71
2022/07/20 05:16:05;;;;;;;13.07;6.50;;;;;;;23.71;58.78;100956.16;5019953;28;20805;-70
2022/07/20 05:18:32;;;;;;;16.50;5.88;;;;;;;23.79;58.34;100946.84;5010614;28;20506;-71
2022/07/20 05:20:59;;;;;;;17.42;5.97;;;;;;;23.89;58.44;100953.22;5007928;28;20088;-72
2022/07/20 05:23:26;;;;;;;12.48;6.78;;;;;;;23.96;58.52;100952.88;5009367;28;20129;-69
2022/07/20 05:25:52;;;;;;;18.58;7.78;;;;;;;24.07;58.19;100958.75;5024434;28;20038;-71
2022/07/20 05:28:20;;;;;;;12.15;5.72;;;;;;;24.16;57.80;100953.78;5008744;28;20089;-71
2022/07/20 05:30:48;;;;;;;16.13;6.18;;;;;;;24.25;58.63;100967.06;5028317;28;20053;-72
2022/07/20 05:33:16;;;;;;;14.52;6.22;;;;;;;24.35;58.19;100980.66;5010202;28;20054;-71
2022/07/20 05:35:43;;;;;;;17.35;6.40;;;;;;;24.46;58.11;100997.03;5016110;28;20124;-71
2022/07/20 05:38:09;;;;;;;14.13;5.93;;;;;;;24.54;57.81;100993.31;5029149;28;20124;-70
2022/07/20 05:40:36;;;;;;;14.45;6.75;;;;;;;24.65;57.93;100999.25;5028389;28;20084;-68
2022/07/20 05:43:03;;;;;;;14.52;6.07;;;;;;;24.77;57.65;100988.91;5022425;28;20538;-71
2022/07/20 05:45:29;;;;;;;13.60;6.40;;;;;;;24.80;58.87;101000.00;5018502;28;20077;-71
2022/07/20 05:47:59;;;;;;;13.32;6.10;;;;;;;24.94;57.90;101006.94;5018250;28;20059;-72
2022/07/20 05:50:26;;;;;;;18.30;6.35;;;;;;;25.18;55.67;101011.19;5011558;28;20141;-71
2022/07/20 05:52:53;;;;;;;7.57;3.33;;;;;;;25.51;51.71;101025.09;5013237;28;20129;-67
2022/07/20 05:55:19;;;;;;;15.25;6.20;;;;;;;25.81;51.36;101025.81;5015795;28;20050;-70
2022/07/20 05:57:46;;;;;;;20.13;6.03;;;;;;;26.00;50.34;101032.78;5010256;28;20080;-67
2022/07/20 06:00:13;;;;;;;20.92;6.80;;;;;;;26.18;49.67;101027.59;5021879;28;20087;-73
2022/07/20 06:02:40;;;;;;;11.18;3.65;;;;;;;26.27;46.87;101035.97;5010326;28;20075;-73
2022/07/20 06:05:07;;;;;;;11.85;3.83;;;;;;;26.48;45.63;101045.22;5011197;28;20338;-70
2022/07/20 06:07:33;;;;;;;14.52;3.97;;;;;;;26.58;43.77;101049.47;5017472;28;20573;-72
2022/07/20 06:10:00;;;;;;;9.02;3.13;;;;;;;26.67;43.21;101046.50;5023582;28;20096;-71
2022/07/20 06:12:27;;;;;;;12.82;5.35;;;;;;;26.80;43.17;101052.56;5014806;28;20053;-72
2022/07/20 06:14:53;;;;;;;10.88;5.07;;;;;;;26.85;42.95;101049.78;5023631;28;20050;-71
2022/07/20 06:17:20;;;;;;;20.90;7.57;;;;;;;26.91;43.25;101047.00;5009482;28;20125;-73
2022/07/20 06:19:47;;;;;;;17.00;6.15;;;;;;;26.99;43.11;101050.94;5018548;28;20155;-72
2022/07/20 06:22:13;;;;;;;17.05;6.82;;;;;;;26.94;43.52;101054.50;5023057;28;20073;-72
2022/07/20 06:24:40;;;;;;;11.77;4.15;;;;;;;26.95;43.94;101059.69;5008449;28;20056;-71
2022/07/20 06:27:21;;;;;;;9.40;3.42;;;;;;;27.03;44.58;101054.34;5015297;28;20774;-70
2022/07/20 06:29:48;;;;;;;18.55;7.70;;;;;;;27.00;44.95;101058.19;5018756;28;20082;-71
2022/07/20 06:32:14;;;;;;;16.50;7.35;;;;;;;27.05;45.80;101061.06;5038112;28;20164;-72
2022/07/20 06:34:42;;;;;;;22.20;10.00;;;;;;;27.12;45.67;101060.63;5010118;28;20045;-74
2022/07/20 06:37:09;;;;;;;22.58;10.80;;;;;;;27.23;45.32;101066.41;5016159;28;20078;-72
2022/07/20 06:39:36;;;;;;;27.20;12.32;;;;;;;27.24;45.49;101067.97;5015879;28;20096;-71
2022/07/20 06:42:08;;;;;;;26.70;12.30;;;;;;;27.21;46.98;101073.88;5019494;28;20133;-71
2022/07/20 06:44:35;;;;;;;25.20;12.10;;;;;;;27.25;46.81;101075.22;5035333;28;20050;-72
2022/07/20 06:47:02;;;;;;;26.67;11.52;;;;;;;27.21;47.88;101080.34;5025048;28;20049;-72
2022/07/20 06:49:29;;;;;;;26.13;12.18;;;;;;;27.25;48.35;101080.13;5029803;28;20480;-72
2022/07/20 06:51:56;;;;;;;19.75;9.18;;;;;;;27.26;49.69;101082.47;5029480;28;20197;-73
2022/07/20 06:54:23;;;;;;;28.33;14.85;;;;;;;27.36;49.95;101097.25;5022468;28;20461;-71
2022/07/20 06:56:50;;;;;;;27.75;13.90;;;;;;;27.35;50.27;101095.69;5022152;28;20099;-71
2022/07/20 06:59:16;;;;;;;25.00;12.43;;;;;;;27.40;50.59;101106.31;5024911;28;20793;-70
2022/07/20 07:01:43;;;;;;;23.50;11.43;;;;;;;27.31;52.23;101107.28;5020901;28;20052;-69
2022/07/20 07:04:10;;;;;;;36.00;16.27;;;;;;;27.50;51.26;101118.31;5009691;28;20117;-72
2022/07/20 07:06:36;;;;;;;28.08;15.75;;;;;;;27.54;52.06;101113.94;5028611;28;20053;-72
2022/07/20 07:09:03;;;;;;;23.23;10.90;;;;;;;27.52;52.70;101116.50;5015786;28;20113;-71
2022/07/20 07:11:30;;;;;;;27.00;11.43;;;;;;;27.50;53.10;101124.75;5020666;28;20077;-71
2022/07/20 07:13:57;;;;;;;29.70;16.88;;;;;;;27.68;53.21;101130.06;5025507;28;20096;-70
2022/07/20 07:16:25;;;;;;;31.90;17.23;;;;;;;27.74;53.76;101138.66;5012007;28;20046;-71
2022/07/20 07:18:51;;;;;;;34.58;19.98;;;;;;;27.92;52.97;101132.59;5045620;28;20423;-70
2022/07/20 07:21:19;;;;;;;41.47;17.77;;;;;;;27.88;54.02;101143.44;5019232;28;20045;-73
2022/07/20 07:23:49;;;;;;;27.00;14.13;;;;;;;27.86;54.47;101148.81;5017078;28;20049;-71
2022/07/20 07:26:18;;;;;;;31.25;18.58;;;;;;;27.96;53.96;101156.66;5021746;28;20172;-74
2022/07/20 07:28:45;;;;;;;33.20;18.63;;;;;;;27.91;53.72;101165.97;5024022;28;20096;-72
2022/07/20 07:31:15;;;;;;;29.55;17.52;;;;;;;27.95;53.91;101169.34;5019934;28;20236;-74
2022/07/20 07:33:41;;;;;;;34.20;19.23;;;;;;;28.01;53.30;101163.69;5017735;28;20103;-72
2022/07/20 07:36:08;;;;;;;27.80;8.88;;;;;;;27.87;53.73;101173.16;5015109;28;20145;-74
2022/07/20 07:38:34;;;;;;;18.77;8.50;;;;;;;27.80;53.31;101187.81;5019745;28;20049;-72
2022/07/20 07:41:01;;;;;;;29.92;17.40;;;;;;;28.03;53.20;101183.84;5021389;28;20059;-72
2022/07/20 07:43:28;;;;;;;31.02;12.65;;;;;;;27.93;53.75;101185.34;5019747;28;20054;-71
2022/07/20 07:45:54;;;;;;;28.38;9.95;;;;;;;27.95;53.60;101194.94;5020928;28;20111;-73
2022/07/20 07:48:21;;;;;;;29.30;14.13;;;;;;;27.97;53.89;101192.34;5014185;28;20088;-73
2022/07/20 07:50:48;;;;;;;20.67;9.57;;;;;;;28.06;54.19;101199.91;5028291;28;20588;-74
2022/07/20 07:53:14;;;;;;;35.83;20.08;;;;;;;28.26;53.67;101206.25;5015820;28;20133;-74
2022/07/20 07:55:42;;;;;;;32.33;20.38;;;;;;;28.13;53.92;101210.81;5014106;28;20073;-72
2022/07/20 07:58:10;;;;;;;27.77;17.17;;;;;;;28.18;54.89;101215.78;5022296;28;20054;-71
2022/07/20 08:00:37;;;;;;;25.45;11.32;;;;;;;28.14;55.17;101221.69;5029122;28;20152;-71
2022/07/20 08:03:05;;;;;;;20.27;10.40;;;;;;;28.28;54.97;101217.91;5013045;28;20090;-72
2022/07/20 08:05:32;;;;;;;17.38;8.48;;;;;;;28.25;55.21;101232.38;5026490;28;20775;-69
2022/07/20 08:08:08;;;;;;;28.45;12.75;;;;;;;28.33;53.67;101219.22;5013880;28;20569;-70
2022/07/20 08:10:37;;;;;;;35.10;22.63;;;;;;;28.69;52.57;101232.66;5021650;28;20141;-71
2022/07/20 08:13:03;;;;;;;33.65;20.90;;;;;;;28.84;51.51;101227.53;5020287;28;20574;-74
2022/07/20 08:15:30;;;;;;;33.70;21.58;;;;;;;29.04;50.38;101239.59;5028320;28;20077;-74
2022/07/20 08:17:57;;;;;;;30.95;22.58;;;;;;;29.05;48.33;101235.44;5028608;28;20111;-74
2022/07/20 08:20:24;;;;;;;32.03;20.23;;;;;;;29.04;47.25;101242.44;5022910;28;20056;-73
2022/07/20 08:22:51;;;;;;;35.83;23.05;;;;;;;29.24;46.70;101252.84;5024639;28;20122;-72
2022/07/20 08:25:19;;;;;;;35.22;24.05;;;;;;;29.25;45.58;101266.59;5025009;28;20548;-72
2022/07/20 08:27:46;;;;;;;28.73;13.32;;;;;;;29.23;45.54;101254.91;5020147;28;20052;-70
2022/07/20 08:30:13;;;;;;;22.95;12.00;;;;;;;29.36;44.92;101260.91;5018311;28;20057;-70
2022/07/20 08:33:00;;;;;;;31.02;22.50;;;;;;;29.57;44.97;101253.69;5012879;28;20041;-74
2022/07/20 08:35:27;;;;;;;33.08;22.27;;;;;;;29.63;45.08;101277.31;5013983;28;20065;-74
2022/07/20 08:37:53;;;;;;;32.42;22.10;;;;;;;29.74;44.72;101282.28;5025248;28;20045;-73
2022/07/20 08:40:20;;;;;;;33.03;21.63;;;;;;;29.77;43.99;101282.00;5023599;28;20510;-74
2022/07/20 08:42:47;;;;;;;32.63;21.55;;;;;;;29.76;44.33;101278.91;5016770;28;20050;-73
2022/07/20 08:45:14;;;;;;;36.38;21.90;;;;;;;29.92;43.93;101280.97;5018638;28;20092;-72
2022/07/20 08:47:41;;;;;;;33.08;22.38;;;;;;;30.00;43.89;101282.03;5017463;28;20826;-73
2022/07/20 08:50:08;;;;;;;36.83;20.77;;;;;;;30.05;43.78;101278.38;5016672;28;20134;-73
2022/07/20 08:52:34;;;;;;;29.17;19.13;;;;;;;29.87;43.75;101287.47;5020314;28;20494;-72
2022/07/20 08:55:01;;;;;;;33.15;22.38;;;;;;;29.83;44.58;101279.16;5026355;28;20053;-74
2022/07/20 08:57:30;;;;;;;24.77;13.35;;;;;;;29.76;44.26;101276.06;5022124;28;20081;-73
2022/07/20 08:59:57;;;;;;;28.90;17.65;;;;;;;29.86;43.89;101278.13;5021370;28;20228;-75
2022/07/20 09:02:24;;;;;;;36.20;21.05;;;;;;;30.00;43.74;101279.19;5011702;28;20054;-74
2022/07/20 09:04:53;;;;;;;31.65;19.55;;;;;;;29.85;43.92;101276.56;5024672;28;20186;-74
2022/07/20 09:07:39;;;;;;;28.15;16.33;;;;;;;29.79;44.51;101272.94;5016702;28;20054;-74
2022/07/20 09:10:09;;;;;;;32.58;22.77;;;;;;;29.95;43.54;101257.13;5023107;28;20469;-74
2022/07/20 09:12:50;;;;;;;30.95;20.95;;;;;;;30.19;44.02;101254.53;5013550;28;20053;-74
2022/07/20 09:15:50;;;;;;;30.10;20.85;;;;;;;30.45;43.32;101249.31;5022603;28;20056;-73
2022/07/20 09:18:28;;;;;;;34.17;20.92;;;;;;;30.54;42.40;101243.34;5024217;28;20161;-73
2022/07/20 09:20:57;;;;;;;29.98;20.25;;;;;;;30.44;42.89;101242.06;5017757;28;20155;-73
2022/07/20 09:23:27;;;;;;;31.80;20.40;;;;;;;30.52;42.61;101238.13;5016337;28;20129;-74
2022/07/20 09:26:00;;;;;;;33.88;21.33;;;;;;;30.54;42.10;101243.34;5026071;28;20524;-75
2022/07/20 09:28:55;;;;;;;36.45;23.55;;;;;;;30.62;42.19;101225.13;5000464;28;20149;-75
2022/07/20 09:31:21;;;;;;;29.35;21.20;;;;;;;30.70;41.99;101225.34;4992859;28;20050;-74
2022/07/20 09:33:57;;;;;;;36.03;21.92;;;;;;;30.85;42.05;101228.72;5002710;28;20053;-75
2022/07/20 09:36:27;;;;;;;33.53;21.70;;;;;;;31.10;41.92;101225.47;5004665;28;20054;-74
2022/07/20 09:39:04;;;;;;;36.28;23.20;;;;;;;31.41;41.47;101233.63;5010816;28;20501;-74
2022/07/20 09:41:33;;;;;;;33.45;21.88;;;;;;;31.37;41.18;101224.56;5000753;28;20167;-75
2022/07/20 09:44:01;;;;;;;33.00;20.88;;;;;;;31.53;41.09;101214.31;5005187;28;20107;-74
2022/07/20 09:46:32;;;;;;;29.10;20.17;;;;;;;31.64;40.65;101212.13;5006570;28;20470;-77
2022/07/20 09:49:02;;;;;;;33.20;19.65;;;;;;;31.69;40.77;101216.28;5003181;28;20072;-74
2022/07/20 09:51:30;;;;;;;32.58;20.85;;;;;;;31.79;40.38;101220.34;5013525;28;20310;-73
2022/07/20 09:54:03;;;;;;;31.58;20.60;;;;;;;31.91;40.04;101216.09;5006360;28;20051;-79
2022/07/20 09:56:31;;;;;;;29.75;20.17;;;;;;;32.03;39.63;101211.84;4998273;28;20211;-73
2022/07/20 09:58:59;;;;;;;29.33;18.83;;;;;;;31.71;39.33;101219.34;5006369;28;20054;-77
2022/07/20 10:01:29;;;;;;;30.42;18.73;;;;;;;31.51;40.03;101220.56;5005536;28;20148;-77
2022/07/20 10:03:58;;;;;;;27.08;17.23;;;;;;;31.81;39.37;101217.75;5005496;28;20160;-74
2022/07/20 10:06:26;;;;;;;28.00;18.13;;;;;;;32.11;38.82;101223.47;5004786;28;20055;-75
2022/07/20 10:08:59;;;;;;;24.50;12.10;;;;;;;32.15;37.53;101224.72;5000551;28;20046;-74
2022/07/20 10:11:26;;;;;;;26.33;17.67;;;;;;;32.36;38.19;101234.41;5001109;28;20053;-72
2022/07/20 10:13:54;;;;;;;29.45;17.15;;;;;;;32.56;37.91;101233.94;5001098;28;20058;-76
2022/07/20 10:16:32;;;;;;;26.38;17.05;;;;;;;32.90;37.44;101237.97;5002732;28;20053;-75
2022/07/20 10:18:59;;;;;;;33.28;18.52;;;;;;;33.04;37.23;101242.50;4998364;28;20152;-75
2022/07/20 10:21:34;;;;;;;26.52;16.98;;;;;;;33.13;36.21;101244.97;4993154;28;20168;-74
2022/07/20 10:24:21;;;;;;;28.65;16.25;;;;;;;33.05;35.85;101264.13;5010808;28;20057;-75
2022/07/20 10:26:49;;;;;;;23.83;15.70;;;;;;;33.22;35.98;101264.69;5000226;28;20121;-74
2022/07/20 10:29:39;;;;;;;21.10;13.52;;;;;;;33.23;35.61;101271.16;5004998;28;20053;-74
2022/07/20 10:32:08;;;;;;;20.88;12.85;;;;;;;33.04;35.80;101276.13;5004971;28;20751;-75
2022/07/20 10:34:39;;;;;;;26.20;15.55;;;;;;;33.09;35.57;101284.66;5005619;28;20058;-72
2022/07/20 10:37:32;;;;;;;27.80;15.52;;;;;;;33.09;35.59;101284.66;5016578;28;20058;-72
2022/07/20 10:40:08;;;;;;;23.98;14.18;;;;;;;32.88;35.26;101289.34;5010992;28;20042;-74
2022/07/20 10:42:34;;;;;;;22.05;13.30;;;;;;;32.95;35.61;101294.47;5007183;28;20176;-74
2022/07/20 10:45:13;;;;;;;22.45;13.63;;;;;;;32.92;35.36;101291.91;5008781;28;20045;-74
2022/07/20 10:47:42;;;;;;;21.27;13.60;;;;;;;32.87;35.71;101296.38;4997745;28;20046;-75
2022/07/20 10:50:33;;;;;;;12.10;6.65;;;;;;;32.70;35.78;101292.91;4999503;28;20053;-75
2022/07/20 10:53:15;;;;;;;21.10;11.43;;;;;;;32.38;36.39;101300.53;4994458;28;20151;-74
2022/07/20 10:55:42;;;;;;;22.00;12.65;;;;;;;32.59;36.36;101298.75;5000469;28;20053;-76
2022/07/20 10:58:21;;;;;;;22.75;12.18;;;;;;;32.81;35.95;101295.66;5005288;28;20037;-74
2022/07/20 11:00:53;;;;;;;25.08;12.38;;;;;;;33.18;35.84;101298.63;5006450;28;20104;-74
2022/07/20 11:03:25;;;;;;;23.80;12.25;;;;;;;33.00;35.91;101290.75;5010068;28;20822;-74
2022/07/20 11:06:00;;;;;;;21.50;12.13;;;;;;;33.11;35.66;101299.25;4998185;28;20054;-72
2022/07/20 11:08:27;;;;;;;23.15;12.57;;;;;;;32.93;36.02;101294.22;5006066;28;20653;-72
2022/07/20 11:10:55;;;;;;;21.38;12.18;;;;;;;33.08;35.50;101296.66;5001463;28;20164;-74
2022/07/20 11:13:22;;;;;;;20.75;12.30;;;;;;;33.26;35.35;101302.41;5001043;28;20522;-75
2022/07/20 11:15:49;;;;;;;20.05;11.25;;;;;;;33.19;35.40;101300.16;4998855;28;20049;-74
2022/07/20 11:18:21;;;;;;;26.80;13.73;;;;;;;33.13;35.68;101288.00;4997613;28;20056;-74
2022/07/20 11:21:08;;;;;;;22.60;12.93;;;;;;;33.06;36.13;101291.47;4998807;28;20157;-74
2022/07/20 11:23:44;;;;;;;23.42;13.20;;;;;;;33.21;35.86;101280.34;5004139;28;20053;-73